TimeEST,TemperatureF,Dew PointF,Humidity,Sea Level PressureIn,VisibilityMPH,Wind Direction,Wind SpeedMPH,Gust SpeedMPH,PrecipitationIn,Events,Conditions,WindDirDegrees,DateUTC
12:15 AM,35.6,35.6,100,30.24,10.0,Calm,Calm,-,N/A,,Clear,0,2012-12-07 05:15:00
12:55 AM,35.6,35.6,100,30.23,10.0,Calm,Calm,-,N/A,,Clear,0,2012-12-07 05:55:00
1:15 AM,35.6,35.6,100,30.23,10.0,Calm,Calm,-,N/A,,Clear,0,2012-12-07 06:15:00
1:35 AM,33.8,33.8,100,30.24,7.0,Calm,Calm,-,N/A,,Clear,0,2012-12-07 06:35:00
1:55 AM,35.6,33.8,93,30.24,10.0,Calm,Calm,-,N/A,,Clear,0,2012-12-07 06:55:00
2:15 AM,33.8,33.8,100,30.24,10.0,Calm,Calm,-,N/A,,Clear,0,2012-12-07 07:15:00
2:35 AM,33.8,33.8,100,30.24,10.0,Calm,Calm,-,N/A,,Clear,0,2012-12-07 07:35:00
2:55 AM,35.6,35.6,100,30.23,10.0,Calm,Calm,-,N/A,,Scattered Clouds,0,2012-12-07 07:55:00
3:15 AM,35.6,35.6,100,30.23,7.0,Calm,Calm,-,N/A,,Overcast,0,2012-12-07 08:15:00
3:35 AM,37.4,37.4,100,30.22,10.0,Calm,Calm,-,N/A,,Overcast,0,2012-12-07 08:35:00
3:55 AM,39.2,39.2,100,30.22,10.0,Calm,Calm,-,N/A,,Overcast,0,2012-12-07 08:55:00
4:15 AM,39.2,39.2,100,30.21,10.0,Calm,Calm,-,N/A,,Overcast,0,2012-12-07 09:15:00
4:35 AM,41.0,39.2,93,30.20,10.0,Calm,Calm,-,N/A,,Overcast,0,2012-12-07 09:35:00
4:55 AM,42.8,41.0,93,30.20,10.0,Calm,Calm,-,N/A,,Overcast,0,2012-12-07 09:55:00
5:15 AM,42.8,41.0,93,30.20,10.0,Calm,Calm,-,N/A,,Overcast,0,2012-12-07 10:15:00
5:35 AM,42.8,41.0,93,30.20,10.0,Calm,Calm,-,N/A,,Overcast,0,2012-12-07 10:35:00
5:55 AM,42.8,42.8,100,30.21,10.0,Calm,Calm,-,N/A,,Overcast,0,2012-12-07 10:55:00
6:15 AM,42.8,42.8,100,30.21,10.0,Calm,Calm,-,N/A,,Overcast,0,2012-12-07 11:15:00
6:35 AM,42.8,42.8,100,30.21,10.0,Calm,Calm,-,N/A,,Overcast,0,2012-12-07 11:35:00
6:55 AM,44.6,42.8,93,30.20,10.0,ENE,3.5,-,N/A,,Overcast,60,2012-12-07 11:55:00
7:15 AM,44.6,42.8,93,30.20,10.0,Calm,Calm,-,N/A,,Overcast,0,2012-12-07 12:15:00
7:35 AM,44.6,42.8,93,30.20,10.0,Calm,Calm,-,N/A,,Overcast,0,2012-12-07 12:35:00
7:55 AM,44.6,42.8,93,30.20,10.0,ENE,3.5,-,N/A,,Overcast,60,2012-12-07 12:55:00
8:15 AM,44.6,44.6,100,30.20,10.0,ENE,3.5,-,N/A,,Overcast,70,2012-12-07 13:15:00
8:35 AM,46.4,44.6,93,30.20,10.0,Calm,Calm,-,N/A,,Overcast,0,2012-12-07 13:35:00
8:55 AM,48.2,46.4,93,30.19,10.0,ENE,3.5,-,N/A,,Overcast,70,2012-12-07 13:55:00
9:15 AM,48.2,46.4,93,30.20,10.0,Calm,Calm,-,N/A,,Overcast,0,2012-12-07 14:15:00
9:35 AM,48.2,46.4,93,30.19,10.0,Calm,Calm,-,N/A,,Overcast,0,2012-12-07 14:35:00
9:55 AM,50.0,46.4,87,30.19,10.0,East,3.5,-,N/A,,Overcast,90,2012-12-07 14:55:00
10:15 AM,51.8,46.4,82,30.17,10.0,East,5.8,-,N/A,,Overcast,100,2012-12-07 15:15:00
10:35 AM,51.8,48.2,88,30.17,10.0,SE,5.8,-,N/A,,Overcast,130,2012-12-07 15:35:00
10:55 AM,53.6,48.2,82,30.16,10.0,SE,6.9,-,N/A,,Overcast,140,2012-12-07 15:55:00
11:15 AM,55.4,50.0,82,30.14,10.0,SE,6.9,-,N/A,,Scattered Clouds,130,2012-12-07 16:15:00
11:35 AM,57.2,51.8,82,30.13,10.0,SE,5.8,-,N/A,,Clear,130,2012-12-07 16:35:00
11:55 AM,59.0,51.8,77,30.13,10.0,SE,5.8,-,N/A,,Mostly Cloudy,140,2012-12-07 16:55:00
12:15 PM,60.8,53.6,77,30.13,10.0,SSE,5.8,-,N/A,,Mostly Cloudy,160,2012-12-07 17:15:00
12:35 PM,60.8,53.6,77,30.11,10.0,SE,3.5,-,N/A,,Scattered Clouds,140,2012-12-07 17:35:00
12:55 PM,62.6,53.6,72,30.10,10.0,Calm,Calm,-,N/A,,Clear,0,2012-12-07 17:55:00
1:15 PM,62.6,53.6,72,30.09,10.0,South,3.5,-,N/A,,Clear,180,2012-12-07 18:15:00
1:35 PM,62.6,53.6,72,30.08,10.0,ESE,3.5,-,N/A,,Clear,120,2012-12-07 18:35:00
1:55 PM,62.6,53.6,72,30.08,10.0,Calm,Calm,-,N/A,,Scattered Clouds,0,2012-12-07 18:55:00
2:15 PM,62.6,53.6,72,30.07,10.0,Calm,Calm,-,N/A,,Overcast,0,2012-12-07 19:15:00
2:35 PM,62.6,55.4,77,30.07,10.0,Calm,Calm,-,N/A,,Overcast,0,2012-12-07 19:35:00
2:55 PM,62.6,55.4,77,30.06,10.0,Calm,Calm,-,N/A,,Overcast,0,2012-12-07 19:55:00
3:15 PM,62.6,55.4,77,30.06,10.0,Calm,Calm,-,N/A,,Overcast,0,2012-12-07 20:15:00
3:35 PM,62.6,55.4,77,30.06,10.0,SE,3.5,-,N/A,,Overcast,130,2012-12-07 20:35:00
3:55 PM,62.6,55.4,77,30.06,10.0,SE,3.5,-,N/A,,Overcast,130,2012-12-07 20:55:00
4:15 PM,62.6,55.4,77,30.06,10.0,Calm,Calm,-,N/A,,Overcast,0,2012-12-07 21:15:00
4:35 PM,62.6,55.4,77,30.06,10.0,Calm,Calm,-,N/A,,Mostly Cloudy,0,2012-12-07 21:35:00
4:55 PM,60.8,55.4,82,30.06,10.0,Calm,Calm,-,N/A,,Mostly Cloudy,0,2012-12-07 21:55:00
5:15 PM,60.8,55.4,82,30.06,10.0,Calm,Calm,-,N/A,,Mostly Cloudy,0,2012-12-07 22:15:00
5:35 PM,60.8,55.4,82,30.06,10.0,Calm,Calm,-,N/A,,Mostly Cloudy,0,2012-12-07 22:35:00
5:55 PM,60.8,55.4,82,30.05,10.0,ESE,3.5,-,N/A,,Scattered Clouds,110,2012-12-07 22:55:00
6:15 PM,60.8,55.4,82,30.05,10.0,Calm,Calm,-,N/A,,Scattered Clouds,0,2012-12-07 23:15:00
6:55 PM,60.8,55.4,82,30.05,10.0,SE,4.6,-,N/A,,Mostly Cloudy,140,2012-12-07 23:55:00
7:15 PM,60.8,55.4,82,30.05,10.0,SE,3.5,-,N/A,,Scattered Clouds,130,2012-12-08 00:15:00
7:35 PM,60.8,55.4,82,30.04,10.0,SE,4.6,-,N/A,,Scattered Clouds,140,2012-12-08 00:35:00
7:55 PM,60.8,55.4,82,30.04,10.0,SE,3.5,-,N/A,,Mostly Cloudy,130,2012-12-08 00:55:00
8:15 PM,59.0,57.2,94,30.04,10.0,SE,4.6,-,N/A,,Mostly Cloudy,140,2012-12-08 01:15:00
8:35 PM,60.8,57.2,88,30.03,10.0,SE,5.8,-,N/A,,Mostly Cloudy,140,2012-12-08 01:35:00
8:55 PM,59.0,57.2,94,30.02,10.0,SE,5.8,-,N/A,,Scattered Clouds,130,2012-12-08 01:55:00
9:15 PM,59.0,57.2,94,30.02,10.0,SSE,5.8,-,N/A,,Clear,150,2012-12-08 02:15:00
9:35 PM,60.8,59.0,94,30.01,10.0,SSE,5.8,-,N/A,,Clear,150,2012-12-08 02:35:00
10:15 PM,60.8,60.8,100,30.01,10.0,South,6.9,-,N/A,,Overcast,170,2012-12-08 03:15:00
10:35 PM,60.8,60.8,100,30.01,10.0,South,8.1,-,N/A,,Overcast,170,2012-12-08 03:35:00
10:55 PM,60.8,60.8,100,30.01,10.0,South,4.6,-,N/A,,Overcast,170,2012-12-08 03:55:00
11:15 PM,60.8,60.8,100,30.01,10.0,South,4.6,-,N/A,,Overcast,170,2012-12-08 04:15:00
11:35 PM,60.8,60.8,100,29.99,3.0,South,3.5,-,N/A,Rain,Rain,170,2012-12-08 04:35:00
11:55 PM,60.8,60.8,100,29.98,3.0,SSE,3.5,-,N/A,,Overcast,160,2012-12-08 04:55:00